Terminal Aerodrome Forecast
Issued by NWS Wilmington, OH

Current Version | Previous Version | Graphics & Text | Print | Product List | Glossary On
Versions: 1 2 3 4 5 6 7 8 9 10 11 12 13 14 15 16 17 18 19 20 21 22 23 24 25 26 27 28
000
FTUS41 KILN 311700
TAFDAY
TAF
KDAY 311720Z 3118/0118 27012G22KT 6SM -DZ FEW008 OVC010
      TEMPO 3118/3120 -DZ OVC008
     FM312000 34011G20KT P6SM BKN008 OVC015
     FM010200 36007KT 6SM BR OVC007
     FM011300 03009KT P6SM OVC020=

USA.gov is the U.S. government's official web portal to all federal, state and local government web resources and services.